createdAt,value
2019-05-15T00:00:38.449Z,58.72
2019-05-15T00:01:40.714Z,58.72
2019-05-15T00:02:38.773Z,58.83
2019-05-15T00:03:38.826Z,58.54
2019-05-15T00:04:38.233Z,58.54
2019-05-15T00:05:38.668Z,59.16
2019-05-15T00:06:36.106Z,58.95
2019-05-15T00:07:38.794Z,59.16
2019-05-15T00:08:38.444Z,59.27
2019-05-15T00:09:39.581Z,59.06
2019-05-15T00:10:39.068Z,59.37
2019-05-15T00:11:36.020Z,59.61
2019-05-15T00:12:36.140Z,59.16
2019-05-15T00:13:36.010Z,59.40
2019-05-15T00:14:35.984Z,59.68
2019-05-15T00:15:35.980Z,59.91
2019-05-15T00:16:38.424Z,60.22
2019-05-15T00:17:36.054Z,60.64
2019-05-15T00:18:35.946Z,60.64
2019-05-15T00:19:35.932Z,60.77
2019-05-15T00:20:36.035Z,60.74
2019-05-15T00:21:38.077Z,60.95
2019-05-15T00:22:35.917Z,60.95
2019-05-15T00:23:38.263Z,60.95
2019-05-15T00:24:38.035Z,60.43
2019-05-15T00:25:35.869Z,60.95
2019-05-15T00:26:35.857Z,60.95
2019-05-15T00:27:38.307Z,60.43
2019-05-15T00:28:35.830Z,60.43
2019-05-15T00:29:38.189Z,60.43
2019-05-15T00:30:38.467Z,60.95
2019-05-15T00:31:35.800Z,60.53
2019-05-15T00:32:35.806Z,60.85
2019-05-15T00:33:35.777Z,60.95
2019-05-15T00:34:37.793Z,60.95
2019-05-15T00:35:35.763Z,61.16
2019-05-15T00:36:38.107Z,60.95
2019-05-15T00:37:38.102Z,60.98
2019-05-15T00:38:35.720Z,61.08
2019-05-15T00:39:35.739Z,61.19
2019-05-15T00:40:35.713Z,61.40
2019-05-15T00:41:49.926Z,61.29
2019-05-15T00:42:38.374Z,61.19
2019-05-15T00:43:35.692Z,61.29
2019-05-15T00:44:35.660Z,61.40
2019-05-15T00:45:35.649Z,61.29
2019-05-15T00:46:35.641Z,61.08
2019-05-15T00:47:35.645Z,60.98
2019-05-15T00:48:35.611Z,61.50
2019-05-15T00:49:38.050Z,61.08
2019-05-15T00:50:35.599Z,61.19
2019-05-15T00:51:35.579Z,61.08
2019-05-15T00:52:35.577Z,62.02
2019-05-15T00:53:35.585Z,60.98
2019-05-15T00:54:35.543Z,61.08
2019-05-15T00:55:37.878Z,60.98
2019-05-15T00:56:35.541Z,61.08
2019-05-15T00:57:35.515Z,61.08
2019-05-15T00:58:35.512Z,61.08
2019-05-15T00:59:35.490Z,61.19
2019-05-15T01:00:38.031Z,61.91
2019-05-15T01:01:38.007Z,61.71
2019-05-15T01:02:35.458Z,61.84
2019-05-15T01:03:35.460Z,62.15
2019-05-15T01:04:35.450Z,62.12
2019-05-15T01:05:35.427Z,62.77
2019-05-15T01:06:35.413Z,62.77
2019-05-15T01:07:35.404Z,62.46
2019-05-15T01:08:35.390Z,62.26
2019-05-15T01:09:35.392Z,62.88
2019-05-15T01:10:35.368Z,62.98
2019-05-15T01:11:35.364Z,62.77
2019-05-15T01:12:35.360Z,62.88
2019-05-15T01:13:35.340Z,62.98
2019-05-15T01:14:35.330Z,63.09
2019-05-15T01:15:35.334Z,63.40
2019-05-15T01:16:35.310Z,63.73
2019-05-15T01:17:35.294Z,63.32
2019-05-15T01:18:35.286Z,63.53
2019-05-15T01:19:35.271Z,63.84
2019-05-15T01:20:35.264Z,63.53
2019-05-15T01:21:35.285Z,64.15
2019-05-15T01:22:35.238Z,63.42
2019-05-15T01:23:35.230Z,63.42
2019-05-15T01:24:35.215Z,63.21
2019-05-15T01:25:35.205Z,63.42
2019-05-15T01:26:35.208Z,63.42
2019-05-15T01:27:35.210Z,63.32
2019-05-15T01:28:35.170Z,63.84
2019-05-15T01:29:43.776Z,63.84
2019-05-15T01:30:36.164Z,63.73
2019-05-15T01:31:35.160Z,64.46
2019-05-15T01:32:35.135Z,63.73
2019-05-15T01:33:35.116Z,64.46
2019-05-15T01:34:35.124Z,64.87
2019-05-15T01:35:35.093Z,64.87
2019-05-15T01:36:35.080Z,64.15
2019-05-15T01:37:35.081Z,64.25
2019-05-15T01:38:35.080Z,64.36
2019-05-15T01:39:35.046Z,64.77
2019-05-15T01:40:35.063Z,64.77
2019-05-15T01:41:35.052Z,64.67
2019-05-15T01:42:35.061Z,64.46
2019-05-15T01:43:35.012Z,64.56
2019-05-15T01:44:34.998Z,64.56
2019-05-15T01:45:35.061Z,64.67
2019-05-15T01:46:35.001Z,65.29
2019-05-15T01:47:34.992Z,64.98
2019-05-15T01:48:34.955Z,64.98
2019-05-15T01:49:34.947Z,65.29
2019-05-15T01:50:34.931Z,64.90
2019-05-15T01:51:34.931Z,65.29
2019-05-15T01:52:34.917Z,65.08
2019-05-15T01:53:34.900Z,65.32
2019-05-15T01:54:34.889Z,65.08
2019-05-15T01:55:34.892Z,65.32
2019-05-15T01:56:34.868Z,65.42
2019-05-15T01:57:34.857Z,65.53
2019-05-15T01:58:34.841Z,65.63
2019-05-15T01:59:34.831Z,65.53
2019-05-15T02:00:34.836Z,65.73
2019-05-15T02:01:34.831Z,66.05
2019-05-15T02:02:34.804Z,65.94
2019-05-15T02:03:34.790Z,65.50
2019-05-15T02:04:34.807Z,65.73
2019-05-15T02:05:34.769Z,65.39
2019-05-15T02:06:34.763Z,65.50
2019-05-15T02:07:34.743Z,65.60
2019-05-15T02:08:34.740Z,65.29
2019-05-15T02:09:34.721Z,65.81
2019-05-15T02:10:34.712Z,65.53
2019-05-15T02:11:34.707Z,65.81
2019-05-15T02:12:34.738Z,66.25
2019-05-15T02:13:34.679Z,66.57
2019-05-15T02:14:34.663Z,66.47
2019-05-15T02:15:34.659Z,66.99
2019-05-15T02:16:34.643Z,66.88
2019-05-15T02:17:34.636Z,66.57
2019-05-15T02:18:34.622Z,66.60
2019-05-15T02:19:34.611Z,66.81
2019-05-15T02:20:34.611Z,66.81
2019-05-15T02:21:34.587Z,67.33
2019-05-15T02:22:34.579Z,66.67
2019-05-15T02:23:34.573Z,66.81
2019-05-15T02:24:34.552Z,66.88
2019-05-15T02:25:34.547Z,67.19
2019-05-15T02:26:34.530Z,67.30
2019-05-15T02:27:34.528Z,67.19
2019-05-15T02:28:34.513Z,67.95
2019-05-15T02:29:34.510Z,67.43
2019-05-15T02:30:34.625Z,67.74
2019-05-15T02:31:34.475Z,67.54
2019-05-15T02:32:34.487Z,67.22
2019-05-15T02:33:34.459Z,67.82
2019-05-15T02:34:34.455Z,67.92
2019-05-15T02:35:34.469Z,67.74
2019-05-15T02:36:34.430Z,67.43
2019-05-15T02:37:34.415Z,67.95
2019-05-15T02:38:34.397Z,67.95
2019-05-15T02:39:34.396Z,67.85
2019-05-15T02:40:34.390Z,67.74
2019-05-15T02:41:34.370Z,67.95
2019-05-15T02:42:34.357Z,68.26
2019-05-15T02:43:34.349Z,68.16
2019-05-15T02:44:34.357Z,68.26
2019-05-15T02:45:37.725Z,68.47
2019-05-15T02:46:35.316Z,68.57
2019-05-15T02:47:34.298Z,68.47
2019-05-15T02:48:34.289Z,68.37
2019-05-15T02:49:34.282Z,68.68
2019-05-15T02:50:34.270Z,68.47
2019-05-15T02:51:34.284Z,68.99
2019-05-15T02:52:34.246Z,68.78
2019-05-15T02:53:34.308Z,69.09
2019-05-15T02:54:34.236Z,68.47
2019-05-15T02:55:34.218Z,69.12
2019-05-15T02:56:34.214Z,68.88
2019-05-15T02:57:34.207Z,69.09
2019-05-15T02:58:34.203Z,68.99
2019-05-15T02:59:34.179Z,69.09
2019-05-15T03:00:44.138Z,68.88
2019-05-15T03:01:35.159Z,69.61
2019-05-15T03:02:34.141Z,69.09
2019-05-15T03:03:34.158Z,69.61
2019-05-15T03:04:34.112Z,69.40
2019-05-15T03:05:34.135Z,69.82
2019-05-15T03:06:34.104Z,69.82
2019-05-15T03:07:34.082Z,69.30
2019-05-15T03:08:34.073Z,68.88
2019-05-15T03:09:34.070Z,69.09
2019-05-15T03:10:34.054Z,69.30
2019-05-15T03:11:34.051Z,69.20
2019-05-15T03:12:34.038Z,68.88
2019-05-15T03:13:34.019Z,68.88
2019-05-15T03:14:34.020Z,68.88
2019-05-15T03:15:33.999Z,69.20
2019-05-15T03:16:33.988Z,68.88
2019-05-15T03:17:33.978Z,69.09
2019-05-15T03:18:33.962Z,68.88
2019-05-15T03:19:33.953Z,68.57
2019-05-15T03:20:33.947Z,68.68
2019-05-15T03:21:33.931Z,68.47
2019-05-15T03:22:33.923Z,68.68
2019-05-15T03:23:33.911Z,68.23
2019-05-15T03:24:33.899Z,68.26
2019-05-15T03:25:33.907Z,68.47
2019-05-15T03:26:33.890Z,68.23
2019-05-15T03:27:34.905Z,68.26
2019-05-15T03:28:33.859Z,67.92
2019-05-15T03:29:33.842Z,68.13
2019-05-15T03:31:02.586Z,67.47
2019-05-15T03:31:50.271Z,67.50
2019-05-15T03:32:43.978Z,67.68
2019-05-15T03:33:36.939Z,67.30
2019-05-15T03:34:38.710Z,67.58
2019-05-15T03:35:34.797Z,67.50
2019-05-15T03:36:33.782Z,67.61
2019-05-15T03:37:34.357Z,67.50
2019-05-15T03:38:33.747Z,67.71
2019-05-15T03:39:33.725Z,67.82
2019-05-15T03:40:33.716Z,67.82
2019-05-15T03:41:33.712Z,67.50
2019-05-15T03:42:33.697Z,67.50
2019-05-15T03:43:33.717Z,67.30
2019-05-15T03:44:33.677Z,67.61
2019-05-15T03:45:33.666Z,67.40
2019-05-15T03:46:33.659Z,67.50
2019-05-15T03:47:33.647Z,68.13
2019-05-15T03:48:33.669Z,68.13
2019-05-15T03:49:33.618Z,68.13
2019-05-15T03:50:33.612Z,67.40
2019-05-15T03:51:33.604Z,67.47
2019-05-15T03:52:33.591Z,67.79
2019-05-15T03:53:33.578Z,67.71
2019-05-15T03:54:33.576Z,67.30
2019-05-15T03:55:33.554Z,67.71
2019-05-15T03:56:33.593Z,67.89
2019-05-15T03:57:33.541Z,67.50
2019-05-15T03:58:33.526Z,67.30
2019-05-15T03:59:33.541Z,67.40
2019-05-15T04:00:33.530Z,67.68
2019-05-15T04:01:37.918Z,67.71
2019-05-15T04:02:34.482Z,67.89
2019-05-15T04:03:33.463Z,67.79
2019-05-15T04:04:33.457Z,67.16
2019-05-15T04:05:33.497Z,67.68
2019-05-15T04:06:33.436Z,66.85
2019-05-15T04:07:33.423Z,66.33
2019-05-15T04:08:33.413Z,66.75
2019-05-15T04:09:33.408Z,66.64
2019-05-15T04:10:33.396Z,66.96
2019-05-15T04:11:33.400Z,66.75
2019-05-15T04:12:33.371Z,66.96
2019-05-15T04:13:33.352Z,66.12
2019-05-15T04:14:33.352Z,66.44
2019-05-15T04:15:33.337Z,66.20
2019-05-15T04:16:33.327Z,65.99
2019-05-15T04:17:33.329Z,66.09
2019-05-15T04:18:33.310Z,66.09
2019-05-15T04:19:33.288Z,66.09
2019-05-15T04:20:33.327Z,65.96
2019-05-15T04:21:33.291Z,65.44
2019-05-15T04:22:33.274Z,65.34
2019-05-15T04:23:33.241Z,65.44
2019-05-15T04:24:33.238Z,64.79
2019-05-15T04:25:33.230Z,65.41
2019-05-15T04:26:33.237Z,65.20
2019-05-15T04:27:33.210Z,64.37
2019-05-15T04:28:33.214Z,64.17
2019-05-15T04:29:33.174Z,63.62
2019-05-15T04:30:33.169Z,63.31
2019-05-15T04:31:50.398Z,63.17
2019-05-15T04:32:34.165Z,62.87
2019-05-15T04:33:33.149Z,62.97
2019-05-15T04:34:33.121Z,62.55
2019-05-15T04:35:33.173Z,62.63
2019-05-15T04:36:33.117Z,62.52
2019-05-15T04:37:33.110Z,62.63
2019-05-15T04:38:33.098Z,62.52
2019-05-15T04:39:33.123Z,62.32
2019-05-15T04:40:33.055Z,61.28
2019-05-15T04:41:33.052Z,60.94
2019-05-15T04:42:33.050Z,61.05
2019-05-15T04:43:41.284Z,61.15
2019-05-15T04:44:35.008Z,61.15
2019-05-15T04:45:35.188Z,60.16
2019-05-15T04:46:32.996Z,59.10
2019-05-15T04:47:32.992Z,58.35
2019-05-15T04:48:32.977Z,57.81
2019-05-15T04:49:32.974Z,58.15
2019-05-15T04:50:32.956Z,58.38
2019-05-15T04:51:32.937Z,58.89
2019-05-15T04:52:32.937Z,59.23
2019-05-15T04:53:33.488Z,59.13
2019-05-15T04:54:32.943Z,59.75
2019-05-15T04:55:32.903Z,59.34
2019-05-15T04:56:32.891Z,59.85
2019-05-15T04:57:34.267Z,59.95
2019-05-15T04:58:32.859Z,59.95
2019-05-15T04:59:32.858Z,60.16
2019-05-15T05:00:33.255Z,60.58
2019-05-15T05:01:32.831Z,60.27
2019-05-15T05:02:32.836Z,60.30
2019-05-15T05:03:34.655Z,60.27
2019-05-15T05:04:32.795Z,60.78
2019-05-15T05:05:32.778Z,59.75
2019-05-15T05:06:32.771Z,59.75
2019-05-15T05:07:32.755Z,59.85
2019-05-15T05:08:32.773Z,60.27
2019-05-15T05:09:32.731Z,60.27
2019-05-15T05:10:32.721Z,60.37
2019-05-15T05:11:32.712Z,60.14
2019-05-15T05:12:32.702Z,60.03
2019-05-15T05:13:32.703Z,58.89
2019-05-15T05:14:32.677Z,59.31
2019-05-15T05:15:32.674Z,58.89
2019-05-15T05:16:32.651Z,59.41
2019-05-15T05:17:32.647Z,59.00
2019-05-15T05:18:32.641Z,59.10
2019-05-15T05:19:32.647Z,59.08
2019-05-15T05:20:32.610Z,58.76
2019-05-15T05:21:32.600Z,59.28
2019-05-15T05:22:32.597Z,59.18
2019-05-15T05:23:32.589Z,58.97
2019-05-15T05:24:32.572Z,58.45
2019-05-15T05:25:32.556Z,58.45
2019-05-15T05:26:32.563Z,58.25
2019-05-15T05:27:32.542Z,58.53
2019-05-15T05:28:32.527Z,58.35
2019-05-15T05:29:32.519Z,58.12
2019-05-15T05:30:32.522Z,58.43
2019-05-15T05:31:32.492Z,58.35
2019-05-15T05:32:35.229Z,58.87
2019-05-15T05:33:32.467Z,58.66
2019-05-15T05:34:32.456Z,58.64
2019-05-15T05:35:32.459Z,58.66
2019-05-15T05:36:32.432Z,58.25
2019-05-15T05:37:32.566Z,59.28
2019-05-15T05:38:32.412Z,59.59
2019-05-15T05:39:32.418Z,59.08
2019-05-15T05:40:32.394Z,58.04
2019-05-15T05:41:32.385Z,59.28
2019-05-15T05:42:32.364Z,58.35
2019-05-15T05:43:32.354Z,58.64
2019-05-15T05:44:32.341Z,58.12
2019-05-15T05:45:32.334Z,58.33
2019-05-15T05:46:32.333Z,57.99
2019-05-15T05:47:32.324Z,58.50
2019-05-15T05:48:32.303Z,57.89
2019-05-15T05:49:32.292Z,57.81
2019-05-15T05:50:32.295Z,57.47
2019-05-15T05:51:32.279Z,57.78
2019-05-15T05:52:32.272Z,58.30
2019-05-15T05:53:32.258Z,58.27
2019-05-15T05:54:32.249Z,57.14
2019-05-15T05:55:32.225Z,57.24
2019-05-15T05:56:32.207Z,56.70
2019-05-15T05:57:32.203Z,55.77
2019-05-15T05:58:32.219Z,56.77
2019-05-15T05:59:32.177Z,55.64
2019-05-15T06:00:32.166Z,56.05
2019-05-15T06:01:32.159Z,54.92
2019-05-15T06:02:43.647Z,55.23
2019-05-15T06:03:33.136Z,55.13
2019-05-15T06:04:32.144Z,55.43
2019-05-15T06:05:32.107Z,55.13
2019-05-15T06:06:32.102Z,55.43
2019-05-15T06:07:32.111Z,55.33
2019-05-15T06:08:32.113Z,55.23
2019-05-15T06:09:32.072Z,55.82
2019-05-15T06:10:32.097Z,55.10
2019-05-15T06:11:32.040Z,55.10
2019-05-15T06:12:32.043Z,55.13
2019-05-15T06:13:32.020Z,56.46
2019-05-15T06:14:32.020Z,56.16
2019-05-15T06:15:32.008Z,55.72
2019-05-15T06:16:31.993Z,55.21
2019-05-15T06:17:31.982Z,55.21
2019-05-15T06:18:31.970Z,54.77
2019-05-15T06:19:31.948Z,54.25
2019-05-15T06:20:31.950Z,54.77
2019-05-15T06:21:31.928Z,53.53
2019-05-15T06:22:31.917Z,53.84
2019-05-15T06:23:34.706Z,54.33
2019-05-15T06:24:31.894Z,54.13
2019-05-15T06:25:31.907Z,54.02
2019-05-15T06:26:31.886Z,54.02
2019-05-15T06:27:31.868Z,53.63
2019-05-15T06:28:31.873Z,53.61
2019-05-15T06:29:31.835Z,54.22
2019-05-15T06:30:31.829Z,53.58
2019-05-15T06:31:31.813Z,53.07
2019-05-15T06:32:31.824Z,52.14
2019-05-15T06:33:31.801Z,53.17
2019-05-15T06:34:31.783Z,52.84
2019-05-15T06:35:31.779Z,52.22
2019-05-15T06:36:31.760Z,52.01
2019-05-15T06:37:31.772Z,51.89
2019-05-15T06:38:31.743Z,52.20
2019-05-15T06:39:31.739Z,51.04
2019-05-15T06:40:32.353Z,51.66
2019-05-15T06:41:33.908Z,50.74
2019-05-15T06:42:31.704Z,51.33
2019-05-15T06:43:31.719Z,51.02
2019-05-15T06:44:31.681Z,50.71
2019-05-15T06:45:31.662Z,50.38
2019-05-15T06:46:31.649Z,49.66
2019-05-15T06:47:31.634Z,49.77
2019-05-15T06:48:31.656Z,49.46
2019-05-15T06:49:31.619Z,49.87
2019-05-15T06:50:31.604Z,49.87
2019-05-15T06:51:31.594Z,50.15
2019-05-15T06:52:31.577Z,49.46
2019-05-15T06:53:31.574Z,49.15
2019-05-15T06:54:31.572Z,49.64
2019-05-15T06:55:31.550Z,49.00
2019-05-15T06:56:31.532Z,48.57
2019-05-15T06:57:31.525Z,48.16
2019-05-15T06:58:31.524Z,47.55
2019-05-15T06:59:31.554Z,47.75
2019-05-15T07:00:31.535Z,47.96
2019-05-15T07:01:31.494Z,47.24
2019-05-15T07:02:31.473Z,47.85
2019-05-15T07:03:31.484Z,47.73
2019-05-15T07:04:31.452Z,47.75
2019-05-15T07:05:31.438Z,48.06
2019-05-15T07:06:31.436Z,47.75
2019-05-15T07:07:31.476Z,47.64
2019-05-15T07:08:31.438Z,47.34
2019-05-15T07:09:31.398Z,47.31
2019-05-15T07:10:31.430Z,48.16
2019-05-15T07:11:31.462Z,47.63
2019-05-15T07:12:31.363Z,47.85
2019-05-15T07:13:31.453Z,47.44
2019-05-15T07:14:31.337Z,47.85
2019-05-15T07:15:31.324Z,47.75
2019-05-15T07:16:31.319Z,47.55
2019-05-15T07:17:31.312Z,47.01
2019-05-15T07:18:31.294Z,46.70
2019-05-15T07:19:31.276Z,46.50
2019-05-15T07:20:31.886Z,46.91
2019-05-15T07:21:31.259Z,46.81
2019-05-15T07:22:31.254Z,47.11
2019-05-15T07:23:31.235Z,46.60
2019-05-15T07:24:31.230Z,46.60
2019-05-15T07:25:31.235Z,46.30
2019-05-15T07:26:31.205Z,46.50
2019-05-15T07:27:31.214Z,46.72
2019-05-15T07:28:31.201Z,46.91
2019-05-15T07:29:31.375Z,47.01
2019-05-15T07:30:31.159Z,46.70
2019-05-15T07:31:31.147Z,46.60
2019-05-15T07:32:31.140Z,47.11
2019-05-15T07:33:39.590Z,47.01
2019-05-15T07:34:32.116Z,46.68
2019-05-15T07:35:31.105Z,46.89
2019-05-15T07:36:31.092Z,47.11
2019-05-15T07:37:31.115Z,46.78
2019-05-15T07:38:31.072Z,46.89
2019-05-15T07:39:31.109Z,47.30
2019-05-15T07:40:31.050Z,46.89
2019-05-15T07:41:31.035Z,46.78
2019-05-15T07:42:31.026Z,46.48
2019-05-15T07:43:31.016Z,46.37
2019-05-15T07:44:31.010Z,47.09
2019-05-15T07:45:31.008Z,46.56
2019-05-15T07:46:30.980Z,46.15
2019-05-15T07:47:30.971Z,46.04
2019-05-15T07:48:30.959Z,45.51
2019-05-15T07:49:30.952Z,45.51
2019-05-15T07:50:31.081Z,45.92
2019-05-15T07:51:31.093Z,45.41
2019-05-15T07:52:30.978Z,45.41
2019-05-15T07:53:30.962Z,45.10
2019-05-15T07:54:30.914Z,45.70
2019-05-15T07:55:30.891Z,45.70
2019-05-15T07:56:30.876Z,44.45
2019-05-15T07:57:30.857Z,44.96
2019-05-15T07:58:30.850Z,44.76
2019-05-15T07:59:30.840Z,44.76
2019-05-15T08:00:30.842Z,44.53
2019-05-15T08:01:30.824Z,43.71
2019-05-15T08:02:30.836Z,44.10
2019-05-15T08:03:30.886Z,42.88
2019-05-15T08:04:33.098Z,44.12
2019-05-15T08:05:30.785Z,43.10
2019-05-15T08:06:30.763Z,42.67
2019-05-15T08:07:30.760Z,41.14
2019-05-15T08:08:30.750Z,40.01
2019-05-15T08:09:30.742Z,36.46
2019-05-15T08:10:30.722Z,37.18
2019-05-15T08:11:30.703Z,37.07
2019-05-15T08:12:30.692Z,35.85
2019-05-15T08:13:30.698Z,36.36
2019-05-15T08:14:30.711Z,35.34
2019-05-15T08:15:30.664Z,36.17
2019-05-15T08:16:30.647Z,36.17
2019-05-15T08:17:30.631Z,35.15
2019-05-15T08:18:30.646Z,34.74
2019-05-15T08:19:30.610Z,34.83
2019-05-15T08:20:30.608Z,34.62
2019-05-15T08:21:30.589Z,34.83
2019-05-15T08:22:30.637Z,34.50
2019-05-15T08:23:30.593Z,33.79
2019-05-15T08:24:30.569Z,34.81
2019-05-15T08:25:35.317Z,33.77
2019-05-15T08:26:30.531Z,33.87
2019-05-15T08:27:30.523Z,34.28
2019-05-15T08:28:30.595Z,34.37
2019-05-15T08:29:30.494Z,33.96
2019-05-15T08:30:30.482Z,32.94
2019-05-15T08:31:30.494Z,32.84
2019-05-15T08:32:30.561Z,32.33
2019-05-15T08:33:30.451Z,33.25
2019-05-15T08:34:30.551Z,32.72
2019-05-15T08:35:30.437Z,32.71
2019-05-15T08:36:31.317Z,32.81
2019-05-15T08:37:30.401Z,32.08
2019-05-15T08:38:30.393Z,32.79
2019-05-15T08:39:30.393Z,32.57
2019-05-15T08:40:31.253Z,31.76
2019-05-15T08:41:30.373Z,31.54
2019-05-15T08:42:32.190Z,31.24
2019-05-15T08:43:31.430Z,31.57
2019-05-15T08:44:31.297Z,31.67
2019-05-15T08:45:30.325Z,31.60
2019-05-15T08:46:30.302Z,31.41
2019-05-15T08:47:30.292Z,32.11
2019-05-15T08:48:32.801Z,32.11
2019-05-15T08:49:30.273Z,32.33
2019-05-15T08:50:30.302Z,32.43
2019-05-15T08:51:30.253Z,33.26
2019-05-15T08:52:30.265Z,32.65
2019-05-15T08:53:30.226Z,33.26
2019-05-15T08:54:30.232Z,33.96
2019-05-15T08:55:30.206Z,33.54
2019-05-15T08:56:30.196Z,33.83
2019-05-15T08:57:30.188Z,33.42
2019-05-15T08:58:30.187Z,33.00
2019-05-15T08:59:30.159Z,33.30
2019-05-15T09:00:30.146Z,32.57
2019-05-15T09:01:30.148Z,33.39
2019-05-15T09:02:30.129Z,32.87
2019-05-15T09:03:30.121Z,32.37
2019-05-15T09:04:34.635Z,32.27
2019-05-15T09:05:31.110Z,31.47
2019-05-15T09:06:30.092Z,33.32
2019-05-15T09:07:30.066Z,32.52
2019-05-15T09:08:30.069Z,32.52
2019-05-15T09:09:30.091Z,33.03
2019-05-15T09:10:30.032Z,33.74
2019-05-15T09:11:30.022Z,33.74
2019-05-15T09:12:30.035Z,33.93
2019-05-15T09:13:30.001Z,33.42
2019-05-15T09:14:29.994Z,32.49
2019-05-15T09:15:29.977Z,32.90
2019-05-15T09:16:29.968Z,33.40
2019-05-15T09:17:29.961Z,32.79
2019-05-15T09:18:29.968Z,33.62
2019-05-15T09:19:29.932Z,34.34
2019-05-15T09:20:29.949Z,33.23
2019-05-15T09:21:30.061Z,33.52
2019-05-15T09:22:29.918Z,34.03
2019-05-15T09:23:29.893Z,34.12
2019-05-15T09:24:29.874Z,34.10
2019-05-15T09:25:29.874Z,33.39
2019-05-15T09:26:29.880Z,33.78
2019-05-15T09:27:29.840Z,33.15
2019-05-15T09:28:29.887Z,33.17
2019-05-15T09:29:29.822Z,33.78
2019-05-15T09:30:29.828Z,33.17
2019-05-15T09:31:29.824Z,34.09
2019-05-15T09:32:29.783Z,33.48
2019-05-15T09:33:29.772Z,33.78
2019-05-15T09:34:46.350Z,33.68
2019-05-15T09:35:30.778Z,33.48
2019-05-15T09:36:29.742Z,32.76
2019-05-15T09:37:29.744Z,33.37
2019-05-15T09:38:29.722Z,33.48
2019-05-15T09:39:29.706Z,33.27
2019-05-15T09:40:42.515Z,34.49
2019-05-15T09:41:30.697Z,33.76
2019-05-15T09:42:29.684Z,33.46
2019-05-15T09:43:29.658Z,33.97
2019-05-15T09:44:29.652Z,33.46
2019-05-15T09:45:29.640Z,33.87
2019-05-15T09:46:29.636Z,34.05
2019-05-15T09:47:29.851Z,33.75
2019-05-15T09:48:29.618Z,34.07
2019-05-15T09:49:29.596Z,34.26
2019-05-15T09:50:29.595Z,33.95
2019-05-15T09:51:29.583Z,34.14
2019-05-15T09:52:30.170Z,33.54
2019-05-15T09:53:29.557Z,34.36
2019-05-15T09:54:29.586Z,34.16
2019-05-15T09:55:29.529Z,33.94
2019-05-15T09:56:29.529Z,33.73
2019-05-15T09:57:30.219Z,32.92
2019-05-15T09:58:30.286Z,33.23
2019-05-15T09:59:29.510Z,32.71
2019-05-15T10:00:29.598Z,32.82
2019-05-15T10:01:29.481Z,33.53
2019-05-15T10:02:29.467Z,32.90
2019-05-15T10:03:29.474Z,33.21
2019-05-15T10:04:29.435Z,33.31
2019-05-15T10:05:29.429Z,33.41
2019-05-15T10:06:29.407Z,33.92
2019-05-15T10:07:29.394Z,32.89
2019-05-15T10:08:29.470Z,33.31
2019-05-15T10:09:29.369Z,33.82
2019-05-15T10:10:29.369Z,33.70
2019-05-15T10:11:29.374Z,32.89
2019-05-15T10:12:34.442Z,33.41
2019-05-15T10:13:30.329Z,33.40
2019-05-15T10:14:29.718Z,32.38
2019-05-15T10:15:29.307Z,33.40
2019-05-15T10:16:29.325Z,33.21
2019-05-15T10:17:29.283Z,34.22
2019-05-15T10:18:29.269Z,33.40
2019-05-15T10:19:29.275Z,33.70
2019-05-15T10:20:29.304Z,33.80
2019-05-15T10:21:32.453Z,32.79
2019-05-15T10:22:29.221Z,31.98
2019-05-15T10:23:29.419Z,33.07
2019-05-15T10:24:29.204Z,32.37
2019-05-15T10:25:29.218Z,33.07
2019-05-15T10:26:29.183Z,33.40
2019-05-15T10:27:29.186Z,33.19
2019-05-15T10:28:29.553Z,34.41
2019-05-15T10:29:29.151Z,33.92
2019-05-15T10:30:29.161Z,34.02
2019-05-15T10:31:29.134Z,34.44
2019-05-15T10:32:29.258Z,33.53
2019-05-15T10:33:29.706Z,34.36
2019-05-15T10:34:29.089Z,34.36
2019-05-15T10:35:31.687Z,34.46
2019-05-15T10:36:29.092Z,34.56
2019-05-15T10:37:29.060Z,34.34
2019-05-15T10:38:29.046Z,35.17
2019-05-15T10:39:29.048Z,34.17
2019-05-15T10:40:29.774Z,35.60
2019-05-15T10:41:29.008Z,35.60
2019-05-15T10:42:29.168Z,36.43
2019-05-15T10:43:29.007Z,35.92
2019-05-15T10:44:28.991Z,35.90
2019-05-15T10:45:29.643Z,35.99
2019-05-15T10:46:28.974Z,34.97
2019-05-15T10:47:29.610Z,35.17
2019-05-15T10:48:29.485Z,35.68
2019-05-15T10:49:28.926Z,34.87
2019-05-15T10:50:28.910Z,35.16
2019-05-15T10:51:28.916Z,35.56
2019-05-15T10:52:28.887Z,35.16
2019-05-15T10:53:29.711Z,35.38
2019-05-15T10:54:29.362Z,36.47
2019-05-15T10:55:28.971Z,36.19
2019-05-15T10:56:29.288Z,36.27
2019-05-15T10:57:28.830Z,35.64
2019-05-15T10:58:28.821Z,35.04
2019-05-15T10:59:28.810Z,35.55
2019-05-15T11:00:28.807Z,35.16
2019-05-15T11:01:28.800Z,36.08
2019-05-15T11:02:29.078Z,35.99
2019-05-15T11:03:29.780Z,35.90
2019-05-15T11:04:28.967Z,36.92
2019-05-15T11:05:40.716Z,36.32
2019-05-15T11:06:29.740Z,36.61
2019-05-15T11:07:28.719Z,35.99
2019-05-15T11:08:29.140Z,35.17
2019-05-15T11:09:28.812Z,35.36
2019-05-15T11:10:29.058Z,34.95
2019-05-15T11:11:28.678Z,34.43
2019-05-15T11:12:29.293Z,34.43
2019-05-15T11:13:28.911Z,34.83
2019-05-15T11:14:28.840Z,33.60
2019-05-15T11:15:29.120Z,33.80
2019-05-15T11:16:28.624Z,33.70
2019-05-15T11:17:31.364Z,33.80
2019-05-15T11:18:30.749Z,32.79
2019-05-15T11:19:35.584Z,33.21
2019-05-15T11:20:29.571Z,33.02
2019-05-15T11:21:28.561Z,33.83
2019-05-15T11:22:29.822Z,33.63
2019-05-15T11:23:29.339Z,33.33
2019-05-15T11:24:32.207Z,33.73
2019-05-15T11:25:30.152Z,33.11
2019-05-15T11:26:33.079Z,33.82
2019-05-15T11:27:31.311Z,33.19
2019-05-15T11:28:31.873Z,33.01
2019-05-15T11:29:28.476Z,33.51
2019-05-15T11:30:28.465Z,33.41
2019-05-15T11:31:28.769Z,32.20
2019-05-15T11:32:29.357Z,32.90
2019-05-15T11:33:29.272Z,32.40
2019-05-15T11:34:29.073Z,32.29
2019-05-15T11:35:28.634Z,32.29
2019-05-15T11:36:28.879Z,32.40
2019-05-15T11:37:28.460Z,32.29
2019-05-15T11:38:29.094Z,33.31
2019-05-15T11:39:28.881Z,32.50
2019-05-15T11:40:28.517Z,32.32
2019-05-15T11:41:29.558Z,32.85
2019-05-15T11:42:28.969Z,33.05
2019-05-15T11:43:29.237Z,32.25
2019-05-15T11:44:28.447Z,33.58
2019-05-15T11:45:29.090Z,32.95
2019-05-15T11:46:29.108Z,32.75
2019-05-15T11:47:28.269Z,32.93
2019-05-15T11:48:29.874Z,32.93
2019-05-15T11:49:28.997Z,33.04
2019-05-15T11:50:29.299Z,32.82
2019-05-15T11:51:29.018Z,33.02
2019-05-15T11:52:29.430Z,33.95
2019-05-15T11:53:28.553Z,32.83
2019-05-15T11:54:28.439Z,32.83
2019-05-15T11:55:29.135Z,33.63
2019-05-15T11:56:29.584Z,32.90
2019-05-15T11:57:41.804Z,32.48
2019-05-15T11:58:29.154Z,32.59
2019-05-15T11:59:30.106Z,31.45
2019-05-15T12:00:30.344Z,31.74
2019-05-15T12:01:28.730Z,31.74
2019-05-15T12:02:29.367Z,31.66
2019-05-15T12:03:29.067Z,31.86
2019-05-15T12:04:33.800Z,31.15
2019-05-15T12:05:29.072Z,31.25
2019-05-15T12:06:29.271Z,30.64
2019-05-15T12:07:29.043Z,31.03
2019-05-15T12:08:29.391Z,31.56
2019-05-15T12:09:28.307Z,31.54
2019-05-15T12:10:28.927Z,31.44
2019-05-15T12:11:36.163Z,31.34
2019-05-15T12:12:31.879Z,31.64
2019-05-15T12:13:28.112Z,31.56
2019-05-15T12:14:29.679Z,32.18
2019-05-15T12:15:28.107Z,31.89
2019-05-15T12:16:29.037Z,31.79
2019-05-15T12:17:28.578Z,32.71
2019-05-15T12:18:28.465Z,32.70
2019-05-15T12:19:29.155Z,32.07
2019-05-15T12:20:28.523Z,33.29
2019-05-15T12:21:28.560Z,32.29
2019-05-15T12:22:28.957Z,32.40
2019-05-15T12:23:29.098Z,32.59
2019-05-15T12:24:32.824Z,32.47
2019-05-15T12:25:31.762Z,32.26
2019-05-15T12:26:29.189Z,31.86
2019-05-15T12:27:28.345Z,32.26
2019-05-15T12:28:29.605Z,32.06
2019-05-15T12:29:28.533Z,31.66
2019-05-15T12:30:29.598Z,31.77
2019-05-15T12:31:27.775Z,32.38
2019-05-15T12:33:29.146Z,32.38
2019-05-15T12:34:28.933Z,31.77
2019-05-15T12:35:29.552Z,31.87
2019-05-15T12:37:28.714Z,31.26
2019-05-15T12:38:28.865Z,31.79
2019-05-15T12:39:30.417Z,31.26
2019-05-15T13:00:29.796Z,31.51
2019-05-15T13:01:29.411Z,31.82
2019-05-15T13:02:28.106Z,32.24
2019-05-15T13:03:28.916Z,31.83
2019-05-15T13:04:28.450Z,31.93
2019-05-15T13:05:29.059Z,32.83
2019-05-15T13:06:28.500Z,33.04
2019-05-15T13:07:28.577Z,32.63
2019-05-15T13:08:29.104Z,32.32
2019-05-15T13:09:27.771Z,32.32
2019-05-15T13:10:28.746Z,32.73
2019-05-15T13:11:28.426Z,33.26
2019-05-15T13:12:28.801Z,31.82
2019-05-15T13:13:28.354Z,32.63
2019-05-15T13:14:28.372Z,32.54